createdAt,value
2018-12-08T00:01:17.366Z,87.02
2018-12-08T00:03:44.750Z,86.02
2018-12-08T00:06:12.136Z,85.72
2018-12-08T00:08:39.606Z,86.49
2018-12-08T00:11:07.264Z,85.28
2018-12-08T00:13:34.653Z,85.69
2018-12-08T00:16:02.218Z,85.61
2018-12-08T00:18:29.637Z,85.53
2018-12-08T00:20:57.043Z,84.61
2018-12-08T00:23:24.434Z,85.42
2018-12-08T00:25:51.907Z,85.50
2018-12-08T00:28:19.383Z,85.74
2018-12-08T00:30:58.584Z,85.63
2018-12-08T00:33:26.021Z,86.81
2018-12-08T00:35:53.411Z,86.60
2018-12-08T00:38:20.829Z,87.23
2018-12-08T00:40:48.206Z,87.19
2018-12-08T00:43:15.619Z,87.05
2018-12-08T00:45:43.013Z,86.70
2018-12-08T00:48:10.450Z,86.54
2018-12-08T00:50:37.877Z,87.16
2018-12-08T00:53:05.425Z,87.03
2018-12-08T00:55:32.872Z,87.30
2018-12-08T00:58:00.390Z,87.40
2018-12-08T01:00:27.899Z,87.53
2018-12-08T01:02:55.397Z,87.26
2018-12-08T01:05:22.866Z,87.47
2018-12-08T01:07:50.370Z,88.08
2018-12-08T01:10:17.830Z,87.06
2018-12-08T01:12:45.344Z,87.04
2018-12-08T01:15:12.724Z,87.40
2018-12-08T01:17:40.105Z,87.42
2018-12-08T01:20:07.590Z,87.21
2018-12-08T01:22:34.996Z,87.17
2018-12-08T01:25:02.383Z,87.03
2018-12-08T01:27:29.810Z,87.84
2018-12-08T01:29:57.199Z,87.13
2018-12-08T01:32:24.639Z,87.33
2018-12-08T01:34:52.079Z,87.25
2018-12-08T01:37:19.596Z,87.87
2018-12-08T01:39:47.016Z,87.20
2018-12-08T01:42:14.444Z,87.64
2018-12-08T01:44:41.894Z,87.49
2018-12-08T01:47:09.357Z,87.48
2018-12-08T01:49:36.894Z,87.22
2018-12-08T01:52:04.430Z,86.99
2018-12-08T01:54:31.858Z,87.99
2018-12-08T01:56:59.318Z,87.04
2018-12-08T01:59:26.758Z,86.71
2018-12-08T02:01:54.253Z,86.94
2018-12-08T02:04:21.727Z,86.38
2018-12-08T02:06:49.176Z,86.89
2018-12-08T02:09:16.627Z,87.16
2018-12-08T02:11:44.071Z,87.02
2018-12-08T02:14:11.535Z,85.79
2018-12-08T02:16:38.979Z,85.57
2018-12-08T02:19:06.439Z,85.02
2018-12-08T02:21:33.925Z,86.24
2018-12-08T02:24:01.342Z,85.31
2018-12-08T02:26:28.857Z,85.68
2018-12-08T02:28:56.376Z,86.09
2018-12-08T02:31:23.830Z,85.64
2018-12-08T02:33:51.274Z,84.80
2018-12-08T02:36:18.726Z,84.84
2018-12-08T02:38:46.155Z,84.49
2018-12-08T02:41:13.547Z,84.42
2018-12-08T02:43:40.931Z,84.25
2018-12-08T02:46:08.326Z,84.31
2018-12-08T02:48:35.893Z,84.87
2018-12-08T02:51:03.452Z,84.79
2018-12-08T02:53:30.839Z,84.73
2018-12-08T02:55:58.302Z,85.72
2018-12-08T02:58:25.722Z,85.27
2018-12-08T03:00:53.186Z,84.87
2018-12-08T03:03:20.565Z,86.32
2018-12-08T03:05:48.085Z,85.04
2018-12-08T03:08:15.700Z,85.20
2018-12-08T03:10:43.148Z,84.76
2018-12-08T03:13:10.584Z,84.74
2018-12-08T03:15:38.009Z,85.65
2018-12-08T03:18:05.439Z,85.42
2018-12-08T03:20:32.888Z,84.12
2018-12-08T03:23:00.330Z,84.68
2018-12-08T03:25:27.899Z,84.50
2018-12-08T03:27:55.347Z,84.12
2018-12-08T03:30:22.776Z,83.81
2018-12-08T03:32:50.320Z,84.31
2018-12-08T03:35:17.880Z,84.74
2018-12-08T03:37:45.310Z,83.91
2018-12-08T03:40:12.839Z,84.90
2018-12-08T03:42:40.285Z,83.53
2018-12-08T03:45:07.833Z,84.06
2018-12-08T03:47:35.288Z,83.42
2018-12-08T03:50:04.057Z,84.22
2018-12-08T03:52:31.484Z,83.80
2018-12-08T03:54:58.904Z,83.52
2018-12-08T03:57:26.376Z,83.59
2018-12-08T03:59:53.837Z,83.37
2018-12-08T04:02:21.303Z,82.74
2018-12-08T04:04:48.734Z,82.69
2018-12-08T04:07:16.145Z,82.84
2018-12-08T04:09:43.567Z,81.98
2018-12-08T04:12:11.108Z,83.26
2018-12-08T04:14:38.562Z,82.39
2018-12-08T04:17:06.128Z,82.81
2018-12-08T04:19:33.568Z,83.07
2018-12-08T04:22:01.000Z,82.72
2018-12-08T04:24:28.605Z,82.88
2018-12-08T04:26:56.164Z,82.75
2018-12-08T04:29:23.637Z,82.56
2018-12-08T04:31:51.088Z,82.37
2018-12-08T04:34:18.503Z,81.57
2018-12-08T04:36:45.944Z,82.25
2018-12-08T04:39:13.441Z,81.87
2018-12-08T04:41:40.818Z,81.42
2018-12-08T04:44:08.199Z,82.20
2018-12-08T04:46:35.753Z,81.93
2018-12-08T04:49:03.289Z,81.00
2018-12-08T04:51:30.683Z,81.66
2018-12-08T04:53:58.131Z,82.61
2018-12-08T04:56:25.519Z,82.46
2018-12-08T04:58:53.052Z,82.11
2018-12-08T05:01:20.431Z,81.51
2018-12-08T05:03:47.824Z,81.83
2018-12-08T05:06:15.198Z,82.23
2018-12-08T05:08:42.665Z,81.23
2018-12-08T05:11:10.042Z,81.99
2018-12-08T05:13:37.430Z,80.95
2018-12-08T05:16:04.809Z,81.92
2018-12-08T05:18:32.290Z,81.83
2018-12-08T05:20:59.674Z,82.28
2018-12-08T05:23:27.202Z,81.78
2018-12-08T05:25:54.664Z,82.24
2018-12-08T05:28:22.049Z,82.76
2018-12-08T05:30:49.479Z,83.27
2018-12-08T05:33:16.930Z,83.46
2018-12-08T05:35:44.314Z,83.63
2018-12-08T05:38:11.806Z,83.30
2018-12-08T05:40:39.182Z,83.70
2018-12-08T05:43:06.575Z,82.16
2018-12-08T05:45:33.954Z,83.24
2018-12-08T05:48:01.365Z,83.13
2018-12-08T05:50:28.747Z,83.43
2018-12-08T05:52:56.273Z,83.08
2018-12-08T05:55:23.737Z,83.34
2018-12-08T05:57:51.119Z,82.30
2018-12-08T06:00:19.115Z,82.39
2018-12-08T06:02:46.520Z,83.00
2018-12-08T06:05:13.985Z,82.44
2018-12-08T06:07:41.425Z,82.84
2018-12-08T06:10:08.884Z,82.88
2018-12-08T06:12:36.345Z,82.68
2018-12-08T06:15:04.001Z,82.57
2018-12-08T06:17:31.385Z,82.77
2018-12-08T06:19:58.781Z,83.00
2018-12-08T06:22:26.169Z,84.08
2018-12-08T06:24:53.558Z,83.06
2018-12-08T06:27:21.687Z,84.36
2018-12-08T06:29:49.075Z,83.95
2018-12-08T06:32:16.458Z,83.51
2018-12-08T06:34:43.841Z,83.43
2018-12-08T06:37:11.219Z,83.52
2018-12-08T06:39:38.755Z,82.46
2018-12-08T06:42:06.246Z,83.97
2018-12-08T06:44:33.722Z,82.92
2018-12-08T06:47:01.337Z,83.59
2018-12-08T06:49:28.880Z,84.08
2018-12-08T06:51:56.270Z,84.97
2018-12-08T06:54:23.668Z,85.75
2018-12-08T06:56:51.083Z,85.82
2018-12-08T06:59:18.493Z,85.54
2018-12-08T07:01:45.866Z,84.71
2018-12-08T07:04:13.302Z,84.36
2018-12-08T07:06:40.682Z,84.00
2018-12-08T07:09:08.213Z,84.25
2018-12-08T07:11:35.675Z,84.53
2018-12-08T07:14:03.170Z,83.50
2018-12-08T07:16:30.648Z,84.39
2018-12-08T07:18:58.137Z,84.43
2018-12-08T07:21:25.611Z,84.67
2018-12-08T07:23:53.092Z,84.18
2018-12-08T07:26:20.815Z,84.19
2018-12-08T07:28:48.291Z,85.02
2018-12-08T07:31:15.720Z,85.96
2018-12-08T07:33:43.135Z,86.39
2018-12-08T07:36:10.546Z,87.00
2018-12-08T07:38:37.993Z,87.79
2018-12-08T07:41:05.474Z,87.08
2018-12-08T07:43:32.914Z,87.26
2018-12-08T07:46:00.375Z,87.56
2018-12-08T07:48:27.804Z,86.28
2018-12-08T07:50:55.291Z,85.89
2018-12-08T07:53:22.718Z,86.23
2018-12-08T07:55:50.292Z,87.10
2018-12-08T07:58:17.729Z,86.75
2018-12-08T08:00:45.212Z,87.38
2018-12-08T08:03:12.638Z,88.59
2018-12-08T08:05:40.100Z,87.98
2018-12-08T08:08:07.507Z,88.15
2018-12-08T08:10:35.046Z,88.66
2018-12-08T08:13:02.465Z,88.25
2018-12-08T08:15:29.953Z,88.57
2018-12-08T08:17:57.434Z,89.12
2018-12-08T08:20:24.921Z,89.20
2018-12-08T08:22:52.345Z,89.59
2018-12-08T08:25:19.811Z,91.27
2018-12-08T08:27:47.233Z,90.96
2018-12-08T08:30:14.798Z,91.59
2018-12-08T08:32:42.246Z,91.33
2018-12-08T08:35:09.814Z,91.20
2018-12-08T08:37:37.277Z,90.13
2018-12-08T08:40:07.492Z,90.79
2018-12-08T08:42:34.934Z,90.75
2018-12-08T08:45:02.388Z,90.13
2018-12-08T08:47:29.868Z,90.46
2018-12-08T08:49:57.334Z,90.43
2018-12-08T08:52:24.767Z,90.07
2018-12-08T08:54:52.227Z,91.35
2018-12-08T08:57:19.994Z,91.69
2018-12-08T08:59:47.428Z,91.00
2018-12-08T09:02:14.844Z,89.87
2018-12-08T09:04:42.282Z,90.93
2018-12-08T09:07:09.753Z,90.70
2018-12-08T09:09:37.194Z,89.74
2018-12-08T09:12:04.761Z,90.09
2018-12-08T09:14:32.263Z,90.54
2018-12-08T09:16:59.803Z,90.33
2018-12-08T09:19:27.259Z,90.06
2018-12-08T09:21:54.750Z,89.90
2018-12-08T09:24:22.374Z,90.24
2018-12-08T09:26:49.814Z,90.02
2018-12-08T09:29:17.464Z,89.61
2018-12-08T09:31:44.985Z,90.29
2018-12-08T09:34:12.482Z,89.91
2018-12-08T09:36:39.858Z,90.42
2018-12-08T09:39:07.714Z,89.82
2018-12-08T09:41:35.240Z,90.70
2018-12-08T09:44:02.763Z,89.92
2018-12-08T09:46:30.198Z,90.58
2018-12-08T09:48:57.640Z,90.62
2018-12-08T09:51:25.121Z,89.80
2018-12-08T09:53:52.506Z,90.38
2018-12-08T09:56:19.946Z,90.09
2018-12-08T09:58:47.374Z,89.99
2018-12-08T10:01:14.907Z,90.10
2018-12-08T10:03:42.330Z,90.18
2018-12-08T10:06:09.786Z,90.16
2018-12-08T10:08:37.282Z,90.53
2018-12-08T10:11:04.947Z,91.15
2018-12-08T10:13:32.410Z,90.69
2018-12-08T10:15:59.886Z,89.93
2018-12-08T10:18:27.458Z,90.70
2018-12-08T10:20:54.982Z,89.97
2018-12-08T10:23:22.354Z,89.61
2018-12-08T10:25:49.741Z,89.45
2018-12-08T10:28:17.124Z,89.09
2018-12-08T10:30:44.564Z,89.64
2018-12-08T10:33:11.938Z,88.96
2018-12-08T10:35:39.322Z,89.09
2018-12-08T10:38:06.727Z,89.16
2018-12-08T10:40:34.183Z,88.88
2018-12-08T10:43:01.634Z,89.83
2018-12-08T10:45:29.090Z,89.51
2018-12-08T10:47:56.475Z,89.08
2018-12-08T10:50:23.915Z,88.06
2018-12-08T10:52:51.303Z,87.36
2018-12-08T10:55:18.716Z,87.76
2018-12-08T10:57:46.107Z,87.01
2018-12-08T11:00:15.390Z,86.16
2018-12-08T11:02:47.513Z,86.63
2018-12-08T11:05:14.903Z,87.74
2018-12-08T11:07:42.277Z,87.84
2018-12-08T11:10:09.670Z,88.54
2018-12-08T11:12:37.562Z,90.31
2018-12-08T11:15:05.507Z,90.65
2018-12-08T11:17:32.987Z,90.52
2018-12-08T11:20:00.350Z,91.08
2018-12-08T11:22:28.004Z,92.40
2018-12-08T11:24:55.466Z,93.01
2018-12-08T11:27:22.926Z,93.58
2018-12-08T11:29:50.563Z,93.43
2018-12-08T11:32:17.970Z,93.84
2018-12-08T11:34:45.425Z,93.09
2018-12-08T11:37:12.811Z,93.68
2018-12-08T11:39:40.267Z,92.82
2018-12-08T11:42:07.678Z,92.76
2018-12-08T11:44:35.262Z,93.08
2018-12-08T11:47:02.687Z,93.38
2018-12-08T11:49:30.433Z,93.25
2018-12-08T11:51:57.902Z,92.55
2018-12-08T11:54:25.317Z,92.07
2018-12-08T11:56:52.758Z,92.02
2018-12-08T11:59:20.141Z,91.09
2018-12-08T12:01:47.522Z,91.84
2018-12-08T12:04:14.904Z,91.75
2018-12-08T12:06:42.292Z,91.67
2018-12-08T12:09:09.797Z,92.11
2018-12-08T12:11:37.236Z,91.65
2018-12-08T12:14:04.630Z,91.50
2018-12-08T12:16:32.059Z,91.34
2018-12-08T12:18:59.492Z,91.20
2018-12-08T12:21:26.950Z,92.30
2018-12-08T12:23:54.333Z,92.55
2018-12-08T12:26:21.715Z,92.42
2018-12-08T12:28:49.146Z,92.40
2018-12-08T12:31:16.534Z,92.99
2018-12-08T12:33:43.918Z,93.12
2018-12-08T12:36:11.310Z,93.87
2018-12-08T12:38:38.699Z,93.64
2018-12-08T12:41:06.121Z,93.55
2018-12-08T12:43:33.513Z,94.18
2018-12-08T12:46:01.038Z,93.64
2018-12-08T12:48:28.490Z,93.90
2018-12-08T12:50:55.881Z,93.38
2018-12-08T12:53:23.350Z,93.51
2018-12-08T12:55:50.730Z,94.66
2018-12-08T12:58:18.223Z,94.68
2018-12-08T13:00:45.677Z,93.81
2018-12-08T13:03:13.063Z,93.85
2018-12-08T13:05:40.599Z,94.14
2018-12-08T13:08:07.978Z,94.09
2018-12-08T13:10:35.403Z,93.35
2018-12-08T13:13:02.987Z,94.36
2018-12-08T13:15:30.383Z,94.27
2018-12-08T13:17:57.771Z,94.42
2018-12-08T13:20:25.247Z,94.30
2018-12-08T13:22:52.809Z,93.39
2018-12-08T13:25:21.850Z,93.49
2018-12-08T13:27:49.311Z,93.17
2018-12-08T13:30:16.760Z,93.30
2018-12-08T13:32:44.159Z,92.25
2018-12-08T13:35:19.290Z,91.89
2018-12-08T13:37:46.783Z,92.31
2018-12-08T13:40:14.282Z,92.22
2018-12-08T13:42:41.671Z,92.73
2018-12-08T13:45:16.426Z,92.16
2018-12-08T13:47:44.663Z,91.85
2018-12-08T13:50:13.016Z,91.89
2018-12-08T13:52:40.478Z,90.91
2018-12-08T13:55:07.899Z,91.50
2018-12-08T13:57:35.360Z,90.33
2018-12-08T14:00:02.883Z,90.03
2018-12-08T14:02:30.418Z,90.71
2018-12-08T14:04:57.951Z,90.83
2018-12-08T14:07:25.476Z,90.23
2018-12-08T14:09:53.033Z,90.68
2018-12-08T14:12:20.567Z,89.95
2018-12-08T14:14:48.000Z,89.99
2018-12-08T14:17:15.521Z,89.87
2018-12-08T14:19:43.008Z,90.15
2018-12-08T14:22:10.399Z,88.89
2018-12-08T14:24:37.874Z,88.93
2018-12-08T14:27:05.263Z,88.62
2018-12-08T14:29:32.680Z,88.65
2018-12-08T14:32:00.367Z,89.59
2018-12-08T14:34:27.759Z,89.03
2018-12-08T14:36:55.251Z,89.06
2018-12-08T14:39:22.709Z,89.22
2018-12-08T14:41:50.098Z,88.58
2018-12-08T14:44:17.467Z,89.36
2018-12-08T14:46:44.870Z,88.57
2018-12-08T14:49:12.326Z,89.51
2018-12-08T14:51:39.833Z,89.13
2018-12-08T14:54:07.369Z,90.15
2018-12-08T14:56:34.779Z,89.97
2018-12-08T14:59:02.200Z,89.68
2018-12-08T15:01:29.654Z,89.18
2018-12-08T15:03:57.040Z,88.90
2018-12-08T15:06:24.527Z,88.87
2018-12-08T15:08:52.170Z,88.61
2018-12-08T15:11:19.595Z,88.85
2018-12-08T15:13:47.077Z,88.36
2018-12-08T15:16:14.498Z,89.09
2018-12-08T15:18:41.927Z,88.08
2018-12-08T15:21:09.389Z,88.90
2018-12-08T15:23:36.859Z,88.98
2018-12-08T15:26:04.300Z,87.94
2018-12-08T15:28:31.747Z,88.72
2018-12-08T15:30:59.156Z,89.27
2018-12-08T15:33:26.543Z,89.16
2018-12-08T15:35:53.930Z,89.34
2018-12-08T15:38:21.380Z,89.59
2018-12-08T15:40:48.827Z,89.42
2018-12-08T15:43:16.213Z,88.42
2018-12-08T15:45:43.638Z,89.62
2018-12-08T15:48:11.094Z,89.27
2018-12-08T15:50:38.467Z,88.98
2018-12-08T15:53:06.104Z,89.15
2018-12-08T15:55:33.475Z,89.10
2018-12-08T15:58:00.946Z,88.71
2018-12-08T16:00:28.335Z,88.93
2018-12-08T16:02:55.726Z,88.78
2018-12-08T16:05:23.194Z,89.49
2018-12-08T16:07:50.650Z,89.29
2018-12-08T16:10:18.034Z,89.59
2018-12-08T16:12:45.427Z,91.07
2018-12-08T16:15:12.803Z,91.61
2018-12-08T16:17:40.194Z,90.68
2018-12-08T16:20:09.680Z,90.65
2018-12-08T16:22:37.074Z,91.82
2018-12-08T16:25:05.254Z,91.10
2018-12-08T16:27:32.666Z,91.47
2018-12-08T16:30:00.130Z,91.00
2018-12-08T16:32:27.579Z,90.87
2018-12-08T16:34:55.038Z,90.54
2018-12-08T16:37:22.419Z,90.60
2018-12-08T16:39:49.849Z,89.73
2018-12-08T16:42:17.316Z,89.81
2018-12-08T16:44:44.715Z,89.51
2018-12-08T16:47:12.114Z,89.84
2018-12-08T16:49:39.511Z,89.89
2018-12-08T16:52:06.939Z,88.62
2018-12-08T16:54:34.386Z,88.68
2018-12-08T16:57:01.839Z,87.82
2018-12-08T16:59:29.227Z,88.70
2018-12-08T17:01:56.627Z,88.31
2018-12-08T17:04:24.113Z,88.87
2018-12-08T17:06:51.502Z,89.11
2018-12-08T17:09:18.943Z,89.16
2018-12-08T17:11:46.335Z,88.74
2018-12-08T17:14:13.723Z,87.93
2018-12-08T17:16:41.101Z,87.71
2018-12-08T17:19:08.548Z,87.92
2018-12-08T17:21:36.019Z,88.08
2018-12-08T17:24:03.548Z,86.90
2018-12-08T17:26:31.014Z,86.43
2018-12-08T17:28:58.424Z,86.85
2018-12-08T17:31:25.810Z,85.17
2018-12-08T17:33:53.281Z,85.88
2018-12-08T17:36:20.674Z,85.09
2018-12-08T17:38:48.062Z,84.63
2018-12-08T17:41:15.559Z,84.00
2018-12-08T17:43:43.015Z,83.58
2018-12-08T17:46:10.503Z,82.62
2018-12-08T17:48:37.897Z,82.87
2018-12-08T17:51:05.431Z,82.74
2018-12-08T17:53:32.954Z,82.10
2018-12-08T17:56:00.397Z,82.30
2018-12-08T17:58:27.854Z,82.42
2018-12-08T18:00:55.435Z,81.44
2018-12-08T18:03:22.884Z,81.65
2018-12-08T18:05:50.298Z,82.20
2018-12-08T18:08:17.683Z,81.35
2018-12-08T18:10:45.143Z,81.43
2018-12-08T18:13:12.598Z,80.70
2018-12-08T18:15:39.986Z,81.90
2018-12-08T18:18:07.382Z,81.56
2018-12-08T18:20:34.865Z,81.17
2018-12-08T18:23:02.330Z,81.23
2018-12-08T18:25:29.778Z,81.33
2018-12-08T18:27:57.256Z,80.81
2018-12-08T18:30:24.650Z,80.66
2018-12-08T18:32:52.050Z,81.20
2018-12-08T18:35:19.518Z,80.54
2018-12-08T18:37:46.898Z,79.87
2018-12-08T18:40:14.421Z,80.70
2018-12-08T18:42:41.980Z,81.07
2018-12-08T18:45:09.362Z,80.03
2018-12-08T18:47:36.754Z,79.34
2018-12-08T18:50:06.529Z,80.17
2018-12-08T18:52:33.918Z,80.04
2018-12-08T18:55:01.491Z,80.42
2018-12-08T18:57:28.974Z,80.88
2018-12-08T18:59:56.425Z,80.96
2018-12-08T19:02:23.886Z,80.98
2018-12-08T19:04:51.347Z,80.88
2018-12-08T19:07:18.738Z,81.72
2018-12-08T19:09:46.150Z,82.04
2018-12-08T19:12:13.613Z,81.80
2018-12-08T19:14:41.008Z,83.23
2018-12-08T19:17:08.427Z,83.45
2018-12-08T19:19:35.859Z,83.39
2018-12-08T19:22:03.342Z,83.89
2018-12-08T19:24:30.807Z,83.41
2018-12-08T19:26:58.256Z,83.11
2018-12-08T19:29:25.645Z,83.32
2018-12-08T19:31:53.061Z,83.86
2018-12-08T19:34:20.494Z,83.53
2018-12-08T19:36:47.902Z,83.24
2018-12-08T19:39:15.299Z,83.59
2018-12-08T19:41:42.786Z,82.91
2018-12-08T19:44:10.252Z,82.54
2018-12-08T19:46:37.809Z,82.87
2018-12-08T19:49:05.271Z,83.25
2018-12-08T19:51:32.666Z,83.02
2018-12-08T19:54:00.079Z,83.10
2018-12-08T19:56:27.588Z,82.04
2018-12-08T19:58:54.995Z,81.79
2018-12-08T20:01:22.388Z,81.35
2018-12-08T20:03:49.767Z,81.62
2018-12-08T20:06:17.159Z,81.34
2018-12-08T20:08:44.587Z,80.54
2018-12-08T20:11:11.968Z,80.81
2018-12-08T20:13:39.394Z,81.37
2018-12-08T20:16:06.885Z,81.07
2018-12-08T20:18:34.406Z,81.92
2018-12-08T20:21:01.810Z,80.43
2018-12-08T20:23:29.189Z,80.40
2018-12-08T20:25:56.591Z,80.18
2018-12-08T20:28:24.189Z,81.18
2018-12-08T20:30:51.890Z,80.02
2018-12-08T20:33:19.323Z,81.38
2018-12-08T20:35:46.747Z,81.85
2018-12-08T20:38:14.171Z,82.42
2018-12-08T20:40:41.550Z,83.43
2018-12-08T20:43:09.113Z,83.90
2018-12-08T20:45:36.493Z,85.50
2018-12-08T20:48:03.890Z,84.75
2018-12-08T20:50:31.275Z,85.41
2018-12-08T20:52:58.663Z,86.84
2018-12-08T20:55:26.751Z,86.97
2018-12-08T20:57:54.162Z,86.49
2018-12-08T21:00:21.547Z,86.87
2018-12-08T21:02:48.974Z,87.76
2018-12-08T21:05:16.362Z,87.29
2018-12-08T21:07:43.791Z,88.36
2018-12-08T21:10:11.179Z,87.95
2018-12-08T21:12:38.565Z,88.24
2018-12-08T21:15:06.766Z,87.63
2018-12-08T21:17:34.150Z,87.85
2018-12-08T21:20:01.582Z,88.44
2018-12-08T21:22:28.962Z,88.92
2018-12-08T21:24:56.354Z,88.68
2018-12-08T21:27:23.754Z,88.16
2018-12-08T21:29:51.201Z,88.25
2018-12-08T21:32:18.590Z,89.61
2018-12-08T21:34:45.995Z,91.02
2018-12-08T21:37:13.374Z,90.51
2018-12-08T21:39:40.830Z,90.88
2018-12-08T21:42:08.219Z,90.86
2018-12-08T21:44:35.642Z,91.05
2018-12-08T21:47:03.094Z,92.03
2018-12-08T21:49:30.490Z,92.70
2018-12-08T21:51:57.872Z,93.16
2018-12-08T21:54:25.262Z,93.45
2018-12-08T21:56:52.642Z,92.83
2018-12-08T21:59:20.042Z,92.97
2018-12-08T22:01:47.511Z,93.47
2018-12-08T22:04:14.990Z,93.70
2018-12-08T22:06:42.453Z,93.05
2018-12-08T22:09:09.943Z,92.82
2018-12-08T22:11:37.365Z,93.01
2018-12-08T22:14:04.903Z,93.88
2018-12-08T22:16:32.450Z,93.33
2018-12-08T22:18:59.898Z,93.76
2018-12-08T22:21:27.296Z,93.25
2018-12-08T22:23:54.793Z,93.22
2018-12-08T22:26:22.258Z,93.10
2018-12-08T22:28:49.644Z,92.97
2018-12-08T22:31:17.041Z,93.51
2018-12-08T22:33:44.482Z,93.11
2018-12-08T22:36:11.934Z,93.32
2018-12-08T22:38:39.406Z,93.78
2018-12-08T22:41:06.872Z,93.87
2018-12-08T22:43:34.245Z,94.14
2018-12-08T22:46:01.773Z,94.24
2018-12-08T22:48:29.224Z,94.53
2018-12-08T22:50:56.626Z,95.12
2018-12-08T22:53:24.027Z,95.54
2018-12-08T22:55:53.314Z,95.97
2018-12-08T22:58:20.758Z,95.84
2018-12-08T23:00:48.849Z,95.27
2018-12-08T23:03:16.230Z,94.57
2018-12-08T23:05:43.790Z,94.82
2018-12-08T23:08:11.190Z,95.41
2018-12-08T23:10:38.595Z,95.59
2018-12-08T23:13:06.037Z,94.78
2018-12-08T23:15:33.471Z,94.31
2018-12-08T23:18:00.889Z,94.60
2018-12-08T23:20:28.311Z,94.43
2018-12-08T23:22:55.690Z,94.25
2018-12-08T23:25:23.078Z,94.06
2018-12-08T23:27:50.458Z,93.06
2018-12-08T23:30:17.868Z,93.16
2018-12-08T23:32:45.255Z,92.49
2018-12-08T23:35:12.701Z,91.87
2018-12-08T23:37:40.101Z,91.44
2018-12-08T23:40:07.602Z,91.77
2018-12-08T23:42:35.024Z,90.56
2018-12-08T23:45:02.529Z,90.18
2018-12-08T23:47:29.916Z,90.36
2018-12-08T23:49:57.347Z,90.53
2018-12-08T23:52:24.732Z,89.38
2018-12-08T23:54:52.230Z,89.26
2018-12-08T23:57:19.637Z,88.96
2018-12-08T23:59:47.049Z,89.43
